Time;durP1;ratioP1;P1;durP2;ratioP2;P2;SDS_P1;SDS_P2;PMS_P1;PMS_P2;Temp;Humidity;BMP_temperature;BMP_pressure;BME280_temperature;BME280_humidity;BME280_pressure;Samples;Min_cycle;Max_cycle;Signal;HPM_P1;HPM_P2
2023/07/11 00:02:20;;;;;;;51.67;49.33;;;16.50;99.90;;;;;;5011253;28;20458;-83
2023/07/11 00:04:47;;;;;;;70.13;67.37;;;16.60;99.90;;;;;;5010960;28;20474;-83
2023/07/11 00:07:14;;;;;;;93.30;89.70;;;16.50;99.90;;;;;;5010819;28;20454;-83
2023/07/11 00:09:44;;;;;;;115.67;111.33;;;16.50;99.90;;;;;;5009792;28;21034;-83
2023/07/11 00:12:10;;;;;;;99.77;95.80;;;16.40;99.90;;;;;;5011040;28;20487;-83
2023/07/11 00:14:39;;;;;;;94.33;90.23;;;16.30;99.90;;;;;;5011023;28;20477;-82
2023/07/11 00:17:06;;;;;;;77.17;73.80;;;16.40;99.90;;;;;;5010782;28;20859;-83
2023/07/11 00:19:47;;;;;;;87.33;83.93;;;16.40;99.90;;;;;;4993358;28;20469;-83
2023/07/11 00:22:14;;;;;;;59.80;57.10;;;16.30;99.90;;;;;;5013612;28;20459;-83
2023/07/11 00:24:41;;;;;;;70.27;66.97;;;16.30;99.90;;;;;;5013318;28;20476;-83
2023/07/11 00:27:08;;;;;;;59.33;56.57;;;16.30;99.90;;;;;;5014377;28;20459;-83
2023/07/11 00:29:35;;;;;;;78.47;75.47;;;16.40;99.90;;;;;;5014208;28;20454;-83
2023/07/11 00:32:05;;;;;;;88.67;85.40;;;16.30;99.90;;;;;;5014094;28;20453;-83
2023/07/11 00:34:32;;;;;;;90.80;87.20;;;16.20;99.90;;;;;;5014383;28;20478;-83
2023/07/11 00:36:59;;;;;;;105.00;101.17;;;16.20;99.90;;;;;;5014281;28;21168;-83
2023/07/11 00:39:28;;;;;;;126.00;121.40;;;16.10;99.90;;;;;;5014200;28;20457;-83
2023/07/11 00:41:55;;;;;;;109.53;105.33;;;16.10;99.90;;;;;;5014039;28;20964;-83
2023/07/11 00:44:24;;;;;;;105.50;101.33;;;16.00;99.90;;;;;;5013958;28;20473;-83
2023/07/11 00:46:52;;;;;;;88.03;84.40;;;16.00;99.90;;;;;;5013674;28;20454;-83
2023/07/11 00:49:23;;;;;;;75.23;72.03;;;16.10;99.90;;;;;;5014170;28;20454;-84
2023/07/11 00:51:54;;;;;;;81.23;77.93;;;16.10;99.90;;;;;;5014315;28;20454;-83
2023/07/11 00:54:25;;;;;;;79.73;76.40;;;16.10;99.90;;;;;;5013981;28;20985;-83
2023/07/11 00:56:52;;;;;;;67.67;64.87;;;16.20;99.90;;;;;;5013592;28;20548;-83
2023/07/11 00:59:21;;;;;;;70.13;66.83;;;16.00;99.90;;;;;;5012633;28;20457;-83
2023/07/11 01:02:00;;;;;;;67.90;64.30;;;16.10;99.90;;;;;;5012496;28;20461;-83
2023/07/11 01:04:29;;;;;;;59.67;57.07;;;16.10;99.90;;;;;;5013848;28;20483;-83
2023/07/11 01:06:58;;;;;;;71.33;68.33;;;16.10;99.90;;;;;;5012215;28;20462;-83
2023/07/11 01:09:26;;;;;;;84.63;81.33;;;16.00;99.90;;;;;;5013637;28;20485;-83
2023/07/11 01:11:57;;;;;;;101.33;97.50;;;16.00;99.90;;;;;;5013838;28;20588;-83
2023/07/11 01:14:25;;;;;;;117.60;113.40;;;16.00;99.90;;;;;;5013437;28;21009;-83
2023/07/11 01:16:52;;;;;;;107.67;103.67;;;16.00;99.90;;;;;;5013438;28;20460;-83
2023/07/11 01:19:20;;;;;;;126.67;121.53;;;16.00;99.90;;;;;;5013551;28;20843;-83
2023/07/11 01:21:49;;;;;;;131.23;126.23;;;16.00;99.90;;;;;;5013254;28;20974;-83
2023/07/11 01:24:16;;;;;;;135.30;130.43;;;16.10;99.90;;;;;;5012122;28;20494;-83
2023/07/11 01:26:43;;;;;;;155.33;149.60;;;16.00;99.90;;;;;;5013377;28;20473;-83
2023/07/11 01:29:11;;;;;;;149.97;144.23;;;16.10;99.90;;;;;;5013286;28;21007;-82
2023/07/11 01:31:38;;;;;;;166.40;159.90;;;16.10;99.90;;;;;;5012973;28;20445;-82
2023/07/11 01:34:06;;;;;;;162.03;156.03;;;16.10;99.90;;;;;;5012840;28;20848;-83
2023/07/11 01:36:34;;;;;;;151.17;145.30;;;16.00;99.90;;;;;;4995489;28;20461;-83
2023/07/11 01:39:04;;;;;;;156.23;150.40;;;16.00;99.90;;;;;;5011772;28;20481;-82
2023/07/11 01:41:33;;;;;;;161.73;155.60;;;16.00;99.90;;;;;;5013011;28;20453;-83
2023/07/11 01:44:00;;;;;;;178.93;172.03;;;15.90;99.90;;;;;;5012749;28;20470;-83
2023/07/11 01:46:27;;;;;;;218.27;209.63;;;15.80;99.90;;;;;;5013011;28;20468;-82
2023/07/11 01:48:56;;;;;;;234.53;224.13;;;15.70;99.90;;;;;;5012865;28;20958;-83
2023/07/11 01:51:23;;;;;;;239.13;229.33;;;15.60;99.90;;;;;;5011741;28;20453;-82
2023/07/11 01:53:50;;;;;;;248.07;237.73;;;15.60;99.90;;;;;;5012732;28;20481;-82
2023/07/11 01:56:18;;;;;;;242.73;232.37;;;15.60;99.90;;;;;;5012511;28;20464;-83
2023/07/11 01:58:45;;;;;;;230.80;221.00;;;15.60;99.90;;;;;;4995201;28;20477;-83
2023/07/11 02:01:14;;;;;;;251.20;239.77;;;15.60;99.90;;;;;;5012596;28;20457;-83
2023/07/11 02:03:40;;;;;;;249.93;239.33;;;15.70;99.90;;;;;;5012558;28;20477;-82
2023/07/11 02:06:07;;;;;;;246.33;235.57;;;15.60;99.90;;;;;;5012414;28;20468;-82
2023/07/11 02:08:34;;;;;;;281.33;269.07;;;15.60;99.90;;;;;;5012479;28;20449;-83
2023/07/11 02:11:01;;;;;;;281.37;268.80;;;15.60;99.90;;;;;;5012656;28;20458;-82
2023/07/11 02:13:31;;;;;;;292.07;278.97;;;15.60;99.90;;;;;;5011418;28;20504;-82
2023/07/11 02:15:58;;;;;;;286.77;272.93;;;15.50;99.90;;;;;;5012440;28;20454;-82
2023/07/11 02:18:25;;;;;;;292.97;279.87;;;15.50;99.90;;;;;;5012152;28;20469;-83
2023/07/11 02:20:57;;;;;;;295.97;282.60;;;15.40;99.90;;;;;;5012397;28;20453;-82
2023/07/11 02:23:24;;;;;;;311.97;297.53;;;15.30;99.90;;;;;;5012038;28;20481;-82
2023/07/11 02:25:53;;;;;;;328.27;313.17;;;15.30;99.90;;;;;;5012904;28;20442;-82
2023/07/11 02:28:20;;;;;;;313.80;299.10;;;15.30;99.90;;;;;;5013145;28;20456;-82
2023/07/11 02:30:48;;;;;;;299.53;286.33;;;15.30;99.90;;;;;;5013738;28;20536;-82
2023/07/11 02:33:16;;;;;;;311.60;297.50;;;15.30;99.90;;;;;;5024048;28;21005;-82
2023/07/11 02:35:44;;;;;;;352.00;335.37;;;15.20;99.90;;;;;;5013177;28;20465;-83
2023/07/11 02:38:11;;;;;;;363.33;345.43;;;15.40;99.90;;;;;;5012943;28;20492;-82
2023/07/11 02:40:37;;;;;;;361.10;343.17;;;15.30;99.90;;;;;;5012279;28;20467;-82
2023/07/11 02:43:04;;;;;;;342.40;325.93;;;15.30;99.90;;;;;;5010786;28;20876;-82
2023/07/11 02:45:31;;;;;;;329.70;313.70;;;15.30;99.90;;;;;;5012088;28;20457;-83
2023/07/11 02:48:00;;;;;;;347.90;331.00;;;15.30;99.90;;;;;;5011652;28;20456;-82
2023/07/11 02:50:27;;;;;;;358.07;340.67;;;15.30;99.90;;;;;;5011601;28;20511;-82
2023/07/11 02:52:54;;;;;;;346.93;330.53;;;15.30;99.90;;;;;;5011683;28;20453;-82
2023/07/11 02:55:20;;;;;;;335.93;319.93;;;15.40;99.90;;;;;;5011750;28;20457;-82
2023/07/11 02:57:48;;;;;;;364.03;346.53;;;15.30;99.90;;;;;;5010469;28;20477;-82
2023/07/11 03:00:15;;;;;;;443.67;418.63;;;15.30;99.90;;;;;;5011752;28;20453;-83
2023/07/11 03:02:43;;;;;;;428.20;404.00;;;15.40;99.90;;;;;;5011851;28;20551;-83
2023/07/11 03:05:12;;;;;;;422.60;399.53;;;15.40;99.90;;;;;;5010296;28;20488;-82
2023/07/11 03:07:38;;;;;;;421.40;398.20;;;15.40;99.90;;;;;;5011399;28;20545;-82
2023/07/11 03:10:06;;;;;;;423.27;399.83;;;15.60;99.90;;;;;;5011771;28;20489;-82
2023/07/11 03:12:33;;;;;;;416.83;394.23;;;15.50;99.90;;;;;;5011045;28;20458;-83
2023/07/11 03:15:00;;;;;;;421.67;398.37;;;15.60;99.90;;;;;;5011671;28;20478;-82
2023/07/11 03:17:27;;;;;;;420.40;396.67;;;15.60;99.90;;;;;;4993917;28;20453;-83
2023/07/11 03:19:54;;;;;;;421.50;398.03;;;15.60;99.90;;;;;;5010187;28;20539;-83
2023/07/11 03:22:22;;;;;;;413.47;390.97;;;15.60;99.90;;;;;;5011175;28;20454;-83
2023/07/11 03:24:49;;;;;;;432.77;408.97;;;15.60;99.90;;;;;;5011191;28;20473;-83
2023/07/11 03:27:16;;;;;;;428.97;404.73;;;15.60;99.90;;;;;;5011445;28;20457;-83
2023/07/11 03:29:43;;;;;;;431.60;407.93;;;15.60;99.90;;;;;;5011580;28;20453;-83
2023/07/11 03:32:11;;;;;;;420.83;398.27;;;15.60;99.90;;;;;;5011118;28;20474;-82
2023/07/11 03:34:37;;;;;;;429.87;406.13;;;15.60;99.90;;;;;;5011450;28;20480;-83
2023/07/11 03:37:04;;;;;;;414.67;392.83;;;15.60;99.90;;;;;;5009923;28;20461;-83
2023/07/11 03:39:33;;;;;;;420.50;397.77;;;15.60;99.90;;;;;;5011408;28;20485;-82
2023/07/11 03:42:00;;;;;;;412.47;390.00;;;15.60;99.90;;;;;;5011375;28;20473;-83
2023/07/11 03:44:27;;;;;;;425.47;402.17;;;15.60;99.90;;;;;;5011185;28;20923;-83
2023/07/11 03:46:54;;;;;;;431.43;408.43;;;15.50;99.90;;;;;;5011438;28;20477;-82
2023/07/11 03:49:21;;;;;;;436.83;413.10;;;15.50;99.90;;;;;;5011532;28;20461;-82
2023/07/11 03:51:47;;;;;;;475.37;447.90;;;15.50;99.90;;;;;;5011291;28;20968;-82
2023/07/11 03:54:14;;;;;;;469.23;442.00;;;15.60;99.90;;;;;;5011365;28;20475;-82
2023/07/11 03:56:42;;;;;;;477.47;449.10;;;15.60;99.90;;;;;;5013090;28;20476;-82
2023/07/11 03:59:09;;;;;;;456.30;429.80;;;15.60;99.90;;;;;;5014782;28;20569;-83
2023/07/11 04:01:36;;;;;;;461.40;435.13;;;15.70;99.90;;;;;;5014701;28;20453;-82
2023/07/11 04:04:03;;;;;;;450.80;425.50;;;15.70;99.90;;;;;;5014959;28;20565;-83
2023/07/11 04:06:30;;;;;;;433.00;407.20;;;15.70;99.90;;;;;;5013703;28;20453;-82
2023/07/11 04:08:57;;;;;;;430.37;405.80;;;15.80;99.90;;;;;;5014922;28;20450;-83
2023/07/11 04:11:24;;;;;;;418.30;394.83;;;15.80;99.90;;;;;;5013468;28;20552;-83
2023/07/11 04:13:52;;;;;;;408.10;385.20;;;16.00;99.90;;;;;;5014537;28;20479;-82
2023/07/11 04:16:19;;;;;;;396.77;375.27;;;16.00;99.90;;;;;;5014505;28;20465;-83
2023/07/11 04:18:46;;;;;;;399.63;378.43;;;16.00;99.90;;;;;;5014427;28;20473;-83
2023/07/11 04:21:13;;;;;;;383.53;363.03;;;16.10;99.90;;;;;;5014730;28;20454;-83
2023/07/11 04:23:40;;;;;;;385.10;364.90;;;16.10;99.90;;;;;;5014473;28;20479;-83
2023/07/11 04:26:07;;;;;;;366.33;347.73;;;16.20;99.90;;;;;;5014296;28;20499;-83
2023/07/11 04:28:34;;;;;;;362.90;344.10;;;16.20;99.90;;;;;;5014322;28;20453;-82
2023/07/11 04:31:03;;;;;;;365.27;346.60;;;16.20;99.90;;;;;;5014254;28;20954;-83
2023/07/11 04:33:30;;;;;;;377.93;357.77;;;16.40;99.90;;;;;;5014150;28;20830;-83
2023/07/11 04:36:07;;;;;;;371.67;351.73;;;16.50;99.90;;;;;;5014138;28;20464;-83
2023/07/11 04:38:34;;;;;;;378.50;358.40;;;16.40;99.90;;;;;;5014251;28;20480;-83
2023/07/11 04:41:03;;;;;;;352.50;334.50;;;16.60;99.90;;;;;;5012893;28;20515;-83
2023/07/11 04:43:33;;;;;;;352.37;334.07;;;16.70;99.90;;;;;;5014030;28;20477;-83
2023/07/11 04:46:03;;;;;;;331.57;315.00;;;16.60;99.90;;;;;;5014084;28;20500;-82
2023/07/11 04:48:31;;;;;;;331.90;315.87;;;16.60;99.90;;;;;;5014186;28;20450;-83
2023/07/11 04:50:59;;;;;;;321.70;306.27;;;16.70;99.90;;;;;;5014007;28;21111;-82
2023/07/11 04:53:27;;;;;;;317.20;302.13;;;16.80;99.90;;;;;;5013823;28;20483;-82
2023/07/11 04:55:58;;;;;;;294.50;280.57;;;16.90;99.90;;;;;;5013552;28;20804;-82
2023/07/11 04:58:26;;;;;;;275.97;263.37;;;16.90;99.90;;;;;;5012641;28;20488;-82
2023/07/11 05:00:59;;;;;;;267.27;255.50;;;17.20;99.90;;;;;;5012544;28;20492;-82
2023/07/11 05:03:28;;;;;;;247.17;236.67;;;17.20;99.90;;;;;;5013355;28;20470;-82
2023/07/11 05:05:55;;;;;;;248.23;237.63;;;17.20;99.90;;;;;;5013332;28;20548;-82
2023/07/11 05:08:22;;;;;;;232.40;222.37;;;17.30;99.90;;;;;;5013430;28;20957;-83
2023/07/11 05:10:52;;;;;;;227.20;217.93;;;17.60;99.90;;;;;;5013918;28;20457;-83
2023/07/11 05:13:19;;;;;;;195.97;188.30;;;17.50;99.90;;;;;;5013758;28;20477;-82
2023/07/11 05:15:48;;;;;;;186.17;178.50;;;17.70;99.90;;;;;;5013176;28;20824;-82
2023/07/11 05:18:15;;;;;;;171.00;164.17;;;17.80;99.90;;;;;;5011585;28;20453;-83
2023/07/11 05:20:43;;;;;;;165.30;158.80;;;17.80;99.90;;;;;;5013332;28;20460;-79
2023/07/11 05:23:11;;;;;;;160.27;154.37;;;17.90;99.90;;;;;;5013270;28;20464;-82
2023/07/11 05:25:38;;;;;;;165.30;158.90;;;18.10;99.90;;;;;;5012441;28;20465;-80
2023/07/11 05:28:06;;;;;;;62.40;59.40;;;18.40;99.90;;;;;;5013222;28;20538;-82
2023/07/11 05:30:33;;;;;;;11.00;10.00;;;18.90;99.90;;;;;;4995615;28;20483;-77
2023/07/11 05:33:00;;;;;;;12.37;4.90;;;19.50;99.90;;;;;;5011724;28;21094;-81
2023/07/11 05:35:27;;;;;;;11.20;5.20;;;19.90;99.40;;;;;;5011940;28;20903;-82
2023/07/11 05:37:57;;;;;;;15.33;4.80;;;20.40;98.20;;;;;;5013293;28;20461;-82
2023/07/11 05:40:24;;;;;;;9.73;3.63;;;21.00;95.50;;;;;;5012831;28;20851;-80
2023/07/11 05:42:50;;;;;;;9.37;3.60;;;21.50;92.30;;;;;;5013053;28;20476;-80
2023/07/11 05:45:19;;;;;;;10.10;3.60;;;21.80;89.80;;;;;;5012521;28;20473;-80
2023/07/11 05:47:45;;;;;;;7.97;3.30;;;22.20;88.10;;;;;;5012960;28;20984;-81
2023/07/11 05:50:13;;;;;;;7.97;3.03;;;22.50;88.20;;;;;;5012773;28;20456;-81
2023/07/11 05:52:39;;;;;;;7.67;3.47;;;22.70;80.70;;;;;;5012580;28;20465;-81
2023/07/11 05:55:09;;;;;;;7.63;4.37;;;22.90;80.80;;;;;;5012860;28;20481;-81
2023/07/11 05:57:36;;;;;;;7.10;3.63;;;23.10;81.10;;;;;;5011438;28;20962;-81
2023/07/11 06:00:05;;;;;;;7.17;3.30;;;23.30;78.60;;;;;;5011921;28;20565;-81
2023/07/11 06:02:32;;;;;;;8.13;2.90;;;23.40;73.20;;;;;;5012550;28;21015;-81
2023/07/11 06:04:58;;;;;;;7.70;2.93;;;23.60;73.40;;;;;;5012540;28;20564;-80
2023/07/11 06:07:27;;;;;;;9.10;3.40;;;23.80;73.50;;;;;;5012044;28;20457;-78
2023/07/11 06:09:55;;;;;;;7.33;3.50;;;24.00;70.30;;;;;;5012790;28;20484;-79
2023/07/11 06:12:23;;;;;;;5.80;2.73;;;24.20;65.80;;;;;;5012441;28;20453;-79
2023/07/11 06:14:50;;;;;;;6.83;2.60;;;24.30;65.70;;;;;;5012397;28;21017;-79
2023/07/11 06:17:18;;;;;;;9.40;3.23;;;24.50;65.90;;;;;;5012152;28;20461;-79
2023/07/11 06:19:47;;;;;;;8.27;3.20;;;24.50;64.40;;;;;;5011696;28;20869;-79
2023/07/11 06:22:14;;;;;;;6.80;2.60;;;24.70;66.10;;;;;;5012336;28;20810;-79
2023/07/11 06:24:41;;;;;;;6.40;2.70;;;24.80;58.20;;;;;;5011069;28;20532;-79
2023/07/11 06:27:09;;;;;;;7.50;2.83;;;24.90;57.80;;;;;;5011585;28;20461;-79
2023/07/11 06:29:37;;;;;;;7.80;3.13;;;24.90;57.80;;;;;;5012143;28;20540;-79
2023/07/11 06:32:05;;;;;;;8.03;3.17;;;25.20;58.00;;;;;;5009195;28;20473;-79
2023/07/11 06:34:32;;;;;;;7.77;3.30;;;25.20;58.10;;;;;;5011080;28;20997;-79
2023/07/11 06:36:58;;;;;;;10.17;3.13;;;25.50;58.20;;;;;;5011325;28;20453;-80
2023/07/11 06:39:26;;;;;;;9.00;2.50;;;25.50;49.40;;;;;;5011351;28;20576;-79
2023/07/11 06:41:53;;;;;;;6.97;3.07;;;25.60;49.40;;;;;;5011158;28;20976;-79
2023/07/11 06:44:21;;;;;;;8.10;2.70;;;25.90;49.60;;;;;;5011697;28;20480;-79
2023/07/11 06:46:49;;;;;;;7.10;2.83;;;26.00;49.60;;;;;;5011596;28;20458;-79
2023/07/11 06:49:16;;;;;;;6.50;2.80;;;26.10;45.90;;;;;;5011295;28;20454;-79
2023/07/11 06:51:42;;;;;;;7.53;3.03;;;26.20;40.80;;;;;;5011627;28;20457;-80
2023/07/11 06:54:09;;;;;;;5.90;2.30;;;26.10;35.20;;;;;;5011347;28;21027;-80
2023/07/11 06:56:37;;;;;;;7.20;2.80;;;26.10;35.90;;;;;;5011420;28;20453;-82
2023/07/11 06:59:04;;;;;;;7.07;2.90;;;26.30;37.70;;;;;;5011102;28;20479;-82
2023/07/11 07:01:31;;;;;;;7.90;2.87;;;26.40;31.80;;;;;;5011577;28;20462;-82
2023/07/11 07:04:00;;;;;;;5.57;2.60;;;26.60;31.80;;;;;;4992565;28;20528;-83
2023/07/11 07:06:27;;;;;;;12.63;3.80;;;26.70;35.70;;;;;;5009796;28;20449;-82
2023/07/11 07:08:54;;;;;;;6.70;2.83;;;26.90;34.60;;;;;;5008697;28;20465;-83
2023/07/11 07:11:21;;;;;;;7.27;3.07;;;26.80;30.50;;;;;;5010884;28;20752;-82
2023/07/11 07:13:49;;;;;;;7.30;2.90;;;26.70;29.50;;;;;;5011083;28;20508;-82
2023/07/11 07:16:16;;;;;;;8.50;3.60;;;26.50;24.10;;;;;;5009663;28;20875;-83
2023/07/11 07:18:44;;;;;;;8.40;2.93;;;26.40;24.10;;;;;;5011234;28;20462;-83
2023/07/11 07:21:12;;;;;;;8.17;3.17;;;26.40;24.10;;;;;;5010907;28;20490;-83
2023/07/11 07:23:39;;;;;;;9.80;3.30;;;26.50;27.60;;;;;;5011376;28;20484;-82
2023/07/11 07:26:07;;;;;;;6.10;2.97;;;26.60;30.20;;;;;;5011228;28;20453;-83
2023/07/11 07:28:35;;;;;;;12.37;3.57;;;26.90;25.80;;;;;;5011201;28;20457;-83
2023/07/11 07:31:05;;;;;;;12.73;3.50;;;27.00;24.40;;;;;;5011653;28;20876;-82
2023/07/11 07:33:32;;;;;;;12.50;3.87;;;27.10;24.40;;;;;;5015024;28;20952;-83
2023/07/11 07:36:02;;;;;;;7.63;3.00;;;27.10;24.20;;;;;;5014881;28;20454;-83
2023/07/11 07:38:31;;;;;;;14.00;3.00;;;27.30;24.60;;;;;;5015077;28;20464;-82
2023/07/11 07:41:01;;;;;;;12.50;2.80;;;27.60;24.70;;;;;;5014763;28;20953;-83
2023/07/11 07:43:30;;;;;;;7.87;2.80;;;27.50;19.40;;;;;;5013007;28;20476;-83
2023/07/11 07:45:58;;;;;;;8.60;3.07;;;27.60;24.70;;;;;;5014007;28;20451;-82
2023/07/11 07:48:25;;;;;;;6.60;2.73;;;27.60;17.70;;;;;;5014432;28;20573;-83
2023/07/11 07:50:53;;;;;;;9.17;2.63;;;27.40;21.50;;;;;;5014887;28;20489;-83
2023/07/11 07:53:20;;;;;;;11.00;3.50;;;27.50;24.70;;;;;;5014657;28;20629;-83
2023/07/11 07:55:48;;;;;;;8.63;3.37;;;27.80;24.80;;;;;;5014478;28;20942;-82
2023/07/11 07:58:15;;;;;;;8.57;3.10;;;27.60;20.80;;;;;;5014739;28;20458;-83
2023/07/11 08:00:42;;;;;;;12.33;3.37;;;27.60;18.20;;;;;;5014792;28;20822;-83
2023/07/11 08:03:09;;;;;;;7.80;3.43;;;28.00;24.10;;;;;;5012642;28;20429;-83
2023/07/11 08:05:37;;;;;;;6.50;3.00;;;28.10;21.70;;;;;;5013549;28;20509;-83
2023/07/11 08:08:04;;;;;;;10.97;2.50;;;28.60;17.80;;;;;;5013982;28;20502;-82
2023/07/11 08:10:33;;;;;;;24.07;4.10;;;28.50;17.70;;;;;;5014412;28;20482;-83
2023/07/11 08:13:01;;;;;;;9.63;2.70;;;28.50;17.70;;;;;;5014521;28;20905;-83
2023/07/11 08:15:28;;;;;;;8.27;3.20;;;28.70;18.60;;;;;;5014424;28;20431;-82
2023/07/11 08:17:56;;;;;;;7.93;3.23;;;29.10;18.00;;;;;;5014666;28;20486;-83
2023/07/11 08:20:23;;;;;;;8.93;3.00;;;29.70;18.40;;;;;;5015141;28;20455;-83
2023/07/11 08:22:50;;;;;;;8.47;3.37;;;29.90;14.10;;;;;;5014324;28;20465;-83
2023/07/11 08:25:17;;;;;;;9.77;2.67;;;29.70;10.70;;;;;;5014202;28;20824;-83
2023/07/11 08:27:44;;;;;;;6.57;2.80;;;29.90;10.80;;;;;;5012370;28;20462;-82
2023/07/11 08:30:13;;;;;;;14.30;3.00;;;29.90;10.90;;;;;;5013879;28;20531;-83
2023/07/11 08:32:40;;;;;;;6.50;2.70;;;29.40;10.90;;;;;;5013337;28;20783;-83
2023/07/11 08:35:07;;;;;;;9.00;3.13;;;29.10;10.40;;;;;;5012840;28;20481;-82
2023/07/11 08:37:34;;;;;;;8.83;3.30;;;28.90;10.30;;;;;;5012901;28;20492;-82
2023/07/11 08:40:04;;;;;;;8.53;2.83;;;28.80;12.20;;;;;;5013793;28;20460;-83
2023/07/11 08:42:34;;;;;;;13.43;3.53;;;28.50;10.20;;;;;;5011804;28;20951;-83
2023/07/11 08:45:10;;;;;;;9.20;3.23;;;28.90;10.30;;;;;;5013479;28;20480;-83
2023/07/11 08:47:43;;;;;;;8.33;2.80;;;29.50;12.40;;;;;;5013708;28;20547;-83
2023/07/11 08:50:15;;;;;;;6.97;3.00;;;29.90;10.80;;;;;;5013934;28;21235;-83
2023/07/11 08:52:45;;;;;;;8.07;2.80;;;30.30;12.80;;;;;;5012082;28;20747;-83
2023/07/11 08:55:17;;;;;;;7.60;2.70;;;30.30;7.20;;;;;;5012077;28;20219;-81
2023/07/11 08:57:47;;;;;;;10.67;2.77;;;30.60;3.30;;;;;;5011953;28;20472;-81
2023/07/11 09:00:17;;;;;;;8.50;2.80;;;30.90;3.50;;;;;;5013214;28;20458;-81
2023/07/11 09:02:54;;;;;;;7.30;2.40;;;31.10;11.50;;;;;;5012015;28;21079;-81
2023/07/11 09:05:32;;;;;;;8.60;2.50;;;31.50;1.00;;;;;;5012512;28;20970;-81
2023/07/11 09:07:59;;;;;;;12.47;2.93;;;31.70;1.00;;;;;;5012034;28;20461;-81
2023/07/11 09:10:41;;;;;;;8.93;2.73;;;31.30;1.00;;;;;;5013058;28;21019;-82
2023/07/11 09:13:24;;;;;;;9.70;2.67;;;31.60;1.00;;;;;;5013106;28;20540;-81
2023/07/11 09:15:58;;;;;;;10.73;2.90;;;31.70;1.00;;;;;;5013243;28;20461;-80
2023/07/11 09:18:42;;;;;;;11.70;2.73;;;31.30;1.00;;;;;;5012675;28;20830;-81
2023/07/11 09:21:14;;;;;;;8.10;2.93;;;31.60;1.00;;;;;;5012509;28;20450;-81
2023/07/11 09:23:52;;;;;;;8.87;3.20;;;32.00;1.00;;;;;;5011777;28;20521;-81
2023/07/11 09:26:25;;;;;;;7.43;2.83;;;32.40;1.00;;;;;;5012995;28;20457;-81
2023/07/11 09:28:59;;;;;;;9.97;2.60;;;32.50;1.00;;;;;;5011830;28;20465;-81
2023/07/11 09:31:28;;;;;;;9.90;2.90;;;32.70;1.00;;;;;;5012150;28;20455;-81
2023/07/11 09:33:58;;;;;;;9.00;2.67;;;33.10;1.00;;;;;;5012890;28;20863;-81
2023/07/11 09:36:30;;;;;;;8.20;2.97;;;33.70;1.00;;;;;;5011883;28;20457;-81
2023/07/11 09:39:04;;;;;;;9.10;2.87;;;33.70;1.00;;;;;;5011538;28;20461;-81
2023/07/11 09:41:42;;;;;;;7.90;3.50;;;33.80;1.00;;;;;;5012882;28;20449;-81
2023/07/11 09:44:11;;;;;;;7.17;2.60;;;34.00;1.00;;;;;;5012742;28;20851;-81
2023/07/11 09:46:39;;;;;;;7.53;2.47;;;34.10;1.00;;;;;;5012485;28;20428;-81
2023/07/11 09:49:10;;;;;;;8.50;2.97;;;33.80;1.00;;;;;;5012798;28;20431;-80
2023/07/11 09:51:44;;;;;;;6.80;3.00;;;33.60;1.00;;;;;;5012654;28;20854;-81
2023/07/11 09:54:18;;;;;;;7.77;2.90;;;34.00;1.00;;;;;;5011641;28;20535;-80
2023/07/11 09:56:47;;;;;;;5.70;2.13;;;34.00;1.00;;;;;;5012489;28;20428;-80
2023/07/11 09:59:16;;;;;;;9.37;3.23;;;33.80;1.00;;;;;;5013064;28;20428;-81
2023/07/11 10:01:43;;;;;;;7.90;3.10;;;33.50;1.00;;;;;;5013228;28;20424;-81
2023/07/11 10:04:16;;;;;;;9.03;3.37;;;34.00;1.00;;;;;;5012470;28;20504;-81
2023/07/11 10:06:52;;;;;;;7.00;2.70;;;34.20;1.00;;;;;;5012576;28;20432;-83
2023/07/11 10:09:23;;;;;;;7.40;2.77;;;34.20;1.00;;;;;;5013038;28;20464;-82
2023/07/11 10:11:56;;;;;;;6.70;2.53;;;34.80;1.00;;;;;;5011765;28;20484;-82
2023/07/11 10:14:28;;;;;;;7.30;2.37;;;35.10;1.00;;;;;;5011830;28;20478;-82
2023/07/11 10:16:57;;;;;;;8.13;2.77;;;35.10;1.00;;;;;;5012919;28;20476;-82
2023/07/11 10:19:27;;;;;;;7.73;4.33;;;35.10;1.00;;;;;;5012843;28;20482;-81
2023/07/11 10:21:59;;;;;;;8.93;4.13;;;34.70;1.00;;;;;;5013108;28;20455;-81
2023/07/11 10:24:39;;;;;;;9.97;4.40;;;35.20;1.00;;;;;;5012488;28;20827;-83
2023/07/11 10:27:19;;;;;;;7.67;4.10;;;36.00;1.00;;;;;;5011530;28;20427;-82
2023/07/11 10:29:51;;;;;;;8.97;5.30;;;36.70;1.00;;;;;;5012641;28;20432;-83
2023/07/11 10:32:27;;;;;;;9.90;4.60;;;36.90;1.00;;;;;;5012746;28;20455;-92
2023/07/11 10:34:58;;;;;;;6.93;3.20;;;36.20;1.00;;;;;;5014123;28;20477;-83
2023/07/11 10:37:31;;;;;;;6.13;2.93;;;36.40;1.00;;;;;;5012756;28;20498;-91
2023/07/11 10:40:05;;;;;;;6.90;2.87;;;36.10;1.00;;;;;;5013759;28;20458;-92
2023/07/11 10:42:39;;;;;;;12.60;3.57;;;35.90;1.00;;;;;;5014070;28;20927;-89
2023/07/11 10:45:15;;;;;;;7.60;3.13;;;35.40;1.00;;;;;;4996901;28;20459;-90
2023/07/11 10:47:51;;;;;;;8.33;4.03;;;36.10;1.00;;;;;;5013390;28;20495;-93
2023/07/11 10:50:31;;;;;;;7.20;3.80;;;36.50;1.00;;;;;;5013784;28;20448;-91
2023/07/11 10:53:02;;;;;;;7.30;3.27;;;36.50;1.00;;;;;;5014958;28;20455;-90
2023/07/11 10:55:38;;;;;;;7.57;3.20;;;36.70;1.00;;;;;;5013289;28;20456;-91
2023/07/11 10:58:06;;;;;;;7.83;2.70;;;37.10;1.00;;;;;;5013763;28;20424;-93
2023/07/11 11:00:48;;;;;;;7.73;3.00;;;37.30;1.00;;;;;;5014502;28;20424;-85
2023/07/11 11:03:26;;;;;;;8.70;3.70;;;36.80;1.00;;;;;;5011408;28;20452;-85
2023/07/11 11:06:01;;;;;;;7.77;2.90;;;36.90;1.00;;;;;;5011055;28;20439;-84
2023/07/11 11:08:37;;;;;;;7.10;2.30;;;37.00;1.00;;;;;;5011489;28;20463;-84
2023/07/11 11:11:13;;;;;;;11.30;4.23;;;36.80;1.00;;;;;;5011692;28;20502;-84
2023/07/11 11:13:51;;;;;;;8.50;4.83;;;37.40;1.00;;;;;;5011971;28;20564;-84
2023/07/11 11:16:26;;;;;;;8.90;4.07;;;37.90;1.00;;;;;;5012187;28;20426;-85
2023/07/11 11:19:04;;;;;;;8.27;3.40;;;38.10;1.00;;;;;;5010690;28;20432;-84
2023/07/11 11:21:40;;;;;;;6.57;2.53;;;38.10;1.00;;;;;;5012981;28;20459;-85
2023/07/11 11:24:45;;;;;;;7.70;2.90;;;37.50;1.00;;;;;;5011874;28;20456;-84
2023/07/11 11:27:24;;;;;;;12.30;3.60;;;36.90;1.00;;;;;;5010647;28;20940;-84
2023/07/11 11:30:00;;;;;;;7.57;2.47;;;37.70;1.00;;;;;;5010364;28;20431;-83
2023/07/11 11:32:36;;;;;;;7.73;3.00;;;38.00;1.00;;;;;;5011377;28;20463;-83
2023/07/11 11:35:18;;;;;;;6.00;2.97;;;38.50;1.00;;;;;;5012124;28;20484;-83
2023/07/11 11:38:09;;;;;;;7.47;3.60;;;38.40;1.00;;;;;;5010737;28;20464;-83
2023/07/11 11:40:40;;;;;;;7.00;3.50;;;38.30;1.00;;;;;;5011782;28;20428;-83
2023/07/11 11:43:11;;;;;;;6.83;3.50;;;38.70;1.00;;;;;;5008826;28;20435;-82
2023/07/11 11:45:40;;;;;;;7.20;3.30;;;38.80;1.00;;;;;;5010097;28;20464;-83
2023/07/11 11:48:13;;;;;;;10.90;4.17;;;38.80;1.00;;;;;;5011583;28;20440;-83
2023/07/11 11:50:42;;;;;;;6.83;3.73;;;39.20;1.00;;;;;;5011265;28;20485;-83
2023/07/11 11:53:34;;;;;;;8.03;3.43;;;39.20;1.00;;;;;;4999499;28;20692;-83
2023/07/11 11:56:03;;;;;;;7.03;3.53;;;39.30;1.00;;;;;;4988140;28;20490;-84
2023/07/11 11:58:33;;;;;;;9.40;3.90;;;39.40;1.00;;;;;;4990176;28;20806;-84
2023/07/11 12:01:00;;;;;;;8.17;3.73;;;39.10;1.00;;;;;;4991658;28;20450;-84
2023/07/11 12:03:30;;;;;;;7.20;3.70;;;39.50;1.00;;;;;;4973472;28;20496;-84
2023/07/11 12:05:59;;;;;;;5.50;2.67;;;40.00;1.00;;;;;;4991238;28;20457;-83
2023/07/11 12:08:43;;;;;;;9.33;3.27;;;40.00;1.00;;;;;;4991440;28;20428;-84
2023/07/11 12:11:20;;;;;;;9.70;3.53;;;39.70;1.00;;;;;;4991738;28;20478;-84
2023/07/11 12:14:17;;;;;;;9.43;3.50;;;40.20;1.00;;;;;;4991388;28;20452;-84
2023/07/11 12:16:48;;;;;;;9.10;3.80;;;40.50;1.00;;;;;;4992117;28;20504;-84
2023/07/11 12:19:28;;;;;;;7.83;3.40;;;40.30;1.00;;;;;;4995120;28;20454;-83
2023/07/11 12:22:01;;;;;;;7.67;3.30;;;39.80;1.00;;;;;;4995119;28;20450;-84
2023/07/11 12:25:00;;;;;;;9.43;3.57;;;39.40;1.00;;;;;;4994824;28;20521;-83
2023/07/11 12:27:57;;;;;;;6.53;3.30;;;40.40;1.00;;;;;;5014360;28;20431;-83
2023/07/11 12:30:55;;;;;;;8.77;3.43;;;40.20;1.00;;;;;;5014044;28;20427;-83
2023/07/11 12:33:30;;;;;;;7.10;3.20;;;41.20;1.00;;;;;;5014579;28;20480;-82
2023/07/11 12:36:18;;;;;;;6.70;2.63;;;40.20;1.00;;;;;;5014765;28;20463;-84
2023/07/11 12:38:53;;;;;;;7.97;3.67;;;40.20;1.00;;;;;;5014554;28;20486;-86
2023/07/11 12:41:31;;;;;;;6.23;2.83;;;40.00;1.00;;;;;;5014285;28;20478;-86
2023/07/11 12:44:01;;;;;;;12.27;3.83;;;40.50;1.00;;;;;;5013615;28;20451;-86
2023/07/11 12:46:34;;;;;;;11.17;3.37;;;40.20;1.00;;;;;;5014668;28;20439;-88
2023/07/11 12:49:04;;;;;;;6.40;3.20;;;40.00;1.00;;;;;;5014845;28;20493;-87